Terminal Aerodrome Forecast
Issued by NWS Cleveland, OH

Home | Current Version | Previous Version | Text Only | Print | Product List | Glossary Off
Versions: 1 2 3 4 5 6 7 8 9 10 11 12 13 14

000
FTUS41 KCLE 301736
TAFYNG
TAF
KYNG 301736Z 3018/3118 25007KT P6SM BKN050 BKN100
     FM310000 23003KT P6SM SCT060
     FM310800 21003KT 4SM BR SKC
     FM311400 23005KT P6SM SCT025
     FM311700 25007KT P6SM BKN050=

USA.gov is the U.S. government's official web portal to all federal, state and local government web resources and services.